sensor_id;sensor_type;location;lat;lon;timestamp;P1;durP1;ratioP1;P2;durP2;ratioP2
5452;SDS011;2749;53.576;9.822;2023-08-31T00:01:46;14.07;;;9.17;;
5452;SDS011;2749;53.576;9.822;2023-08-31T00:04:17;7.37;;;6.57;;
5452;SDS011;2749;53.576;9.822;2023-08-31T00:06:43;7.03;;;6.33;;
5452;SDS011;2749;53.576;9.822;2023-08-31T00:09:11;10.80;;;6.40;;
5452;SDS011;2749;53.576;9.822;2023-08-31T00:11:37;8.17;;;7.30;;
5452;SDS011;2749;53.576;9.822;2023-08-31T00:14:03;7.70;;;7.10;;
5452;SDS011;2749;53.576;9.822;2023-08-31T00:16:29;7.77;;;7.07;;
5452;SDS011;2749;53.576;9.822;2023-08-31T00:18:56;9.40;;;7.90;;
5452;SDS011;2749;53.576;9.822;2023-08-31T00:21:22;9.60;;;7.50;;
5452;SDS011;2749;53.576;9.822;2023-08-31T00:23:48;8.17;;;6.90;;
5452;SDS011;2749;53.576;9.822;2023-08-31T00:26:14;9.30;;;7.33;;
5452;SDS011;2749;53.576;9.822;2023-08-31T00:28:40;9.33;;;7.07;;
5452;SDS011;2749;53.576;9.822;2023-08-31T00:31:07;10.43;;;7.57;;
5452;SDS011;2749;53.576;9.822;2023-08-31T00:33:33;7.57;;;6.80;;
5452;SDS011;2749;53.576;9.822;2023-08-31T00:36:00;8.30;;;7.10;;
5452;SDS011;2749;53.576;9.822;2023-08-31T00:38:26;9.07;;;7.60;;
5452;SDS011;2749;53.576;9.822;2023-08-31T00:40:52;8.10;;;7.30;;
5452;SDS011;2749;53.576;9.822;2023-08-31T00:43:19;8.20;;;7.40;;
5452;SDS011;2749;53.576;9.822;2023-08-31T00:45:45;8.70;;;6.77;;
5452;SDS011;2749;53.576;9.822;2023-08-31T00:48:12;8.53;;;7.60;;
5452;SDS011;2749;53.576;9.822;2023-08-31T00:50:40;7.70;;;7.00;;
5452;SDS011;2749;53.576;9.822;2023-08-31T00:53:06;7.00;;;6.30;;
5452;SDS011;2749;53.576;9.822;2023-08-31T00:55:32;8.13;;;6.43;;
5452;SDS011;2749;53.576;9.822;2023-08-31T00:57:58;9.77;;;7.47;;
5452;SDS011;2749;53.576;9.822;2023-08-31T01:00:25;7.67;;;6.87;;
5452;SDS011;2749;53.576;9.822;2023-08-31T01:03:01;7.43;;;6.53;;
5452;SDS011;2749;53.576;9.822;2023-08-31T01:05:38;7.27;;;6.50;;
5452;SDS011;2749;53.576;9.822;2023-08-31T01:08:25;12.60;;;7.60;;
5452;SDS011;2749;53.576;9.822;2023-08-31T01:10:57;9.70;;;7.70;;
5452;SDS011;2749;53.576;9.822;2023-08-31T01:13:25;9.70;;;6.87;;
5452;SDS011;2749;53.576;9.822;2023-08-31T01:15:52;7.97;;;7.17;;
5452;SDS011;2749;53.576;9.822;2023-08-31T01:18:20;8.90;;;6.90;;
5452;SDS011;2749;53.576;9.822;2023-08-31T01:20:51;9.00;;;6.40;;
5452;SDS011;2749;53.576;9.822;2023-08-31T01:23:18;8.17;;;7.30;;
5452;SDS011;2749;53.576;9.822;2023-08-31T01:25:45;8.40;;;6.60;;
5452;SDS011;2749;53.576;9.822;2023-08-31T01:28:12;9.43;;;5.80;;
5452;SDS011;2749;53.576;9.822;2023-08-31T01:30:38;7.20;;;6.50;;
5452;SDS011;2749;53.576;9.822;2023-08-31T01:33:04;9.03;;;6.83;;
5452;SDS011;2749;53.576;9.822;2023-08-31T01:35:30;7.60;;;6.67;;
5452;SDS011;2749;53.576;9.822;2023-08-31T01:37:58;7.53;;;6.67;;
5452;SDS011;2749;53.576;9.822;2023-08-31T01:40:38;7.87;;;7.07;;
5452;SDS011;2749;53.576;9.822;2023-08-31T01:43:06;8.00;;;6.57;;
5452;SDS011;2749;53.576;9.822;2023-08-31T01:45:32;7.83;;;7.13;;
5452;SDS011;2749;53.576;9.822;2023-08-31T01:47:59;6.00;;;5.37;;
5452;SDS011;2749;53.576;9.822;2023-08-31T01:50:25;6.93;;;6.03;;
5452;SDS011;2749;53.576;9.822;2023-08-31T01:52:51;7.60;;;6.07;;
5452;SDS011;2749;53.576;9.822;2023-08-31T01:55:21;9.77;;;7.20;;
5452;SDS011;2749;53.576;9.822;2023-08-31T01:57:47;7.10;;;6.40;;
5452;SDS011;2749;53.576;9.822;2023-08-31T02:00:13;8.90;;;6.87;;
5452;SDS011;2749;53.576;9.822;2023-08-31T02:02:39;6.70;;;5.87;;
5452;SDS011;2749;53.576;9.822;2023-08-31T02:05:06;7.30;;;5.73;;
5452;SDS011;2749;53.576;9.822;2023-08-31T02:07:32;7.93;;;6.60;;
5452;SDS011;2749;53.576;9.822;2023-08-31T02:09:58;7.40;;;5.70;;
5452;SDS011;2749;53.576;9.822;2023-08-31T02:12:24;6.83;;;6.07;;
5452;SDS011;2749;53.576;9.822;2023-08-31T02:14:50;8.53;;;5.63;;
5452;SDS011;2749;53.576;9.822;2023-08-31T02:17:16;6.40;;;5.90;;
5452;SDS011;2749;53.576;9.822;2023-08-31T02:19:42;6.80;;;5.57;;
5452;SDS011;2749;53.576;9.822;2023-08-31T02:22:08;6.90;;;6.30;;
5452;SDS011;2749;53.576;9.822;2023-08-31T02:24:34;6.60;;;5.70;;
5452;SDS011;2749;53.576;9.822;2023-08-31T02:27:00;9.10;;;6.60;;
5452;SDS011;2749;53.576;9.822;2023-08-31T02:29:26;6.70;;;5.30;;
5452;SDS011;2749;53.576;9.822;2023-08-31T02:31:52;6.23;;;5.67;;
5452;SDS011;2749;53.576;9.822;2023-08-31T02:34:18;7.27;;;6.07;;
5452;SDS011;2749;53.576;9.822;2023-08-31T02:36:45;7.30;;;5.93;;
5452;SDS011;2749;53.576;9.822;2023-08-31T02:39:11;7.80;;;6.30;;
5452;SDS011;2749;53.576;9.822;2023-08-31T02:41:37;7.70;;;5.97;;
5452;SDS011;2749;53.576;9.822;2023-08-31T02:44:04;6.10;;;5.50;;
5452;SDS011;2749;53.576;9.822;2023-08-31T02:46:30;7.23;;;5.73;;
5452;SDS011;2749;53.576;9.822;2023-08-31T02:48:56;6.27;;;4.97;;
5452;SDS011;2749;53.576;9.822;2023-08-31T02:51:22;11.57;;;6.87;;
5452;SDS011;2749;53.576;9.822;2023-08-31T02:53:48;6.80;;;6.10;;
5452;SDS011;2749;53.576;9.822;2023-08-31T02:56:14;9.63;;;6.10;;
5452;SDS011;2749;53.576;9.822;2023-08-31T02:58:40;6.93;;;5.73;;
5452;SDS011;2749;53.576;9.822;2023-08-31T03:01:07;6.10;;;5.50;;
5452;SDS011;2749;53.576;9.822;2023-08-31T03:03:33;8.30;;;5.20;;
5452;SDS011;2749;53.576;9.822;2023-08-31T03:06:00;9.47;;;5.63;;
5452;SDS011;2749;53.576;9.822;2023-08-31T03:08:26;9.37;;;5.80;;
5452;SDS011;2749;53.576;9.822;2023-08-31T03:10:51;6.17;;;5.60;;
5452;SDS011;2749;53.576;9.822;2023-08-31T03:13:18;8.57;;;5.80;;
5452;SDS011;2749;53.576;9.822;2023-08-31T03:15:44;6.47;;;5.50;;
5452;SDS011;2749;53.576;9.822;2023-08-31T03:18:09;6.30;;;5.10;;
5452;SDS011;2749;53.576;9.822;2023-08-31T03:20:35;7.77;;;4.90;;
5452;SDS011;2749;53.576;9.822;2023-08-31T03:23:01;8.87;;;6.10;;
5452;SDS011;2749;53.576;9.822;2023-08-31T03:25:27;10.90;;;4.73;;
5452;SDS011;2749;53.576;9.822;2023-08-31T03:27:54;6.63;;;5.10;;
5452;SDS011;2749;53.576;9.822;2023-08-31T03:30:20;5.00;;;4.27;;
5452;SDS011;2749;53.576;9.822;2023-08-31T03:32:45;5.70;;;5.20;;
5452;SDS011;2749;53.576;9.822;2023-08-31T03:35:11;8.03;;;4.80;;
5452;SDS011;2749;53.576;9.822;2023-08-31T03:37:37;5.40;;;4.50;;
5452;SDS011;2749;53.576;9.822;2023-08-31T03:40:03;5.83;;;3.97;;
5452;SDS011;2749;53.576;9.822;2023-08-31T03:42:31;5.13;;;4.40;;
5452;SDS011;2749;53.576;9.822;2023-08-31T03:44:57;10.13;;;5.77;;
5452;SDS011;2749;53.576;9.822;2023-08-31T03:47:23;4.70;;;4.30;;
5452;SDS011;2749;53.576;9.822;2023-08-31T03:49:49;5.60;;;4.60;;
5452;SDS011;2749;53.576;9.822;2023-08-31T03:52:15;4.60;;;4.20;;
5452;SDS011;2749;53.576;9.822;2023-08-31T03:54:40;4.13;;;3.00;;
5452;SDS011;2749;53.576;9.822;2023-08-31T03:57:06;4.07;;;3.63;;
5452;SDS011;2749;53.576;9.822;2023-08-31T03:59:32;5.27;;;4.63;;
5452;SDS011;2749;53.576;9.822;2023-08-31T04:01:58;7.10;;;4.93;;
5452;SDS011;2749;53.576;9.822;2023-08-31T04:04:25;4.50;;;3.87;;
5452;SDS011;2749;53.576;9.822;2023-08-31T04:06:51;7.40;;;4.80;;
5452;SDS011;2749;53.576;9.822;2023-08-31T04:09:16;6.50;;;3.80;;
5452;SDS011;2749;53.576;9.822;2023-08-31T04:11:44;4.33;;;3.20;;
5452;SDS011;2749;53.576;9.822;2023-08-31T04:14:09;4.67;;;3.73;;
5452;SDS011;2749;53.576;9.822;2023-08-31T04:16:35;3.90;;;3.60;;
5452;SDS011;2749;53.576;9.822;2023-08-31T04:19:01;9.77;;;4.50;;
5452;SDS011;2749;53.576;9.822;2023-08-31T04:21:27;5.37;;;3.80;;
5452;SDS011;2749;53.576;9.822;2023-08-31T04:23:53;4.20;;;3.80;;
5452;SDS011;2749;53.576;9.822;2023-08-31T04:26:19;5.13;;;4.50;;
5452;SDS011;2749;53.576;9.822;2023-08-31T04:28:45;4.70;;;3.70;;
5452;SDS011;2749;53.576;9.822;2023-08-31T04:31:11;4.63;;;3.80;;
5452;SDS011;2749;53.576;9.822;2023-08-31T04:33:38;5.90;;;4.20;;
5452;SDS011;2749;53.576;9.822;2023-08-31T04:36:05;7.20;;;4.13;;
5452;SDS011;2749;53.576;9.822;2023-08-31T04:38:31;8.03;;;4.93;;
5452;SDS011;2749;53.576;9.822;2023-08-31T04:41:00;6.97;;;5.03;;
5452;SDS011;2749;53.576;9.822;2023-08-31T04:43:26;9.00;;;5.07;;
5452;SDS011;2749;53.576;9.822;2023-08-31T04:45:53;9.07;;;6.23;;
5452;SDS011;2749;53.576;9.822;2023-08-31T04:48:19;6.13;;;5.47;;
5452;SDS011;2749;53.576;9.822;2023-08-31T04:50:45;7.57;;;4.80;;
5452;SDS011;2749;53.576;9.822;2023-08-31T04:53:11;5.90;;;4.53;;
5452;SDS011;2749;53.576;9.822;2023-08-31T04:55:37;6.13;;;5.53;;
5452;SDS011;2749;53.576;9.822;2023-08-31T04:58:03;7.17;;;5.27;;
5452;SDS011;2749;53.576;9.822;2023-08-31T05:00:29;8.90;;;5.70;;
5452;SDS011;2749;53.576;9.822;2023-08-31T05:02:55;6.10;;;5.50;;
5452;SDS011;2749;53.576;9.822;2023-08-31T05:05:21;6.60;;;5.00;;
5452;SDS011;2749;53.576;9.822;2023-08-31T05:07:47;6.13;;;5.57;;
5452;SDS011;2749;53.576;9.822;2023-08-31T05:10:13;10.00;;;5.37;;
5452;SDS011;2749;53.576;9.822;2023-08-31T05:12:39;8.50;;;4.87;;
5452;SDS011;2749;53.576;9.822;2023-08-31T05:15:05;7.60;;;5.60;;
5452;SDS011;2749;53.576;9.822;2023-08-31T05:17:31;8.13;;;5.87;;
5452;SDS011;2749;53.576;9.822;2023-08-31T05:19:59;8.30;;;6.37;;
5452;SDS011;2749;53.576;9.822;2023-08-31T05:22:25;6.27;;;5.47;;
5452;SDS011;2749;53.576;9.822;2023-08-31T05:24:50;7.10;;;6.30;;
5452;SDS011;2749;53.576;9.822;2023-08-31T05:27:16;7.90;;;7.00;;
5452;SDS011;2749;53.576;9.822;2023-08-31T05:29:42;8.70;;;5.90;;
5452;SDS011;2749;53.576;9.822;2023-08-31T05:32:08;8.20;;;6.20;;
5452;SDS011;2749;53.576;9.822;2023-08-31T05:34:34;7.90;;;6.07;;
5452;SDS011;2749;53.576;9.822;2023-08-31T05:37:04;7.30;;;5.40;;
5452;SDS011;2749;53.576;9.822;2023-08-31T05:39:30;7.93;;;5.33;;
5452;SDS011;2749;53.576;9.822;2023-08-31T05:41:56;5.87;;;4.90;;
5452;SDS011;2749;53.576;9.822;2023-08-31T05:44:22;11.10;;;5.43;;
5452;SDS011;2749;53.576;9.822;2023-08-31T05:46:48;9.70;;;7.00;;
5452;SDS011;2749;53.576;9.822;2023-08-31T05:49:14;9.20;;;5.57;;
5452;SDS011;2749;53.576;9.822;2023-08-31T05:51:40;6.00;;;5.27;;
5452;SDS011;2749;53.576;9.822;2023-08-31T05:54:06;9.90;;;6.50;;
5452;SDS011;2749;53.576;9.822;2023-08-31T05:56:36;7.77;;;5.60;;
5452;SDS011;2749;53.576;9.822;2023-08-31T05:59:02;9.80;;;6.53;;
5452;SDS011;2749;53.576;9.822;2023-08-31T06:01:28;8.20;;;5.37;;
5452;SDS011;2749;53.576;9.822;2023-08-31T06:03:54;10.13;;;5.70;;
5452;SDS011;2749;53.576;9.822;2023-08-31T06:06:20;7.03;;;4.97;;
5452;SDS011;2749;53.576;9.822;2023-08-31T06:08:46;8.00;;;5.47;;
5452;SDS011;2749;53.576;9.822;2023-08-31T06:11:13;8.00;;;5.20;;
5452;SDS011;2749;53.576;9.822;2023-08-31T06:13:39;6.87;;;6.20;;
5452;SDS011;2749;53.576;9.822;2023-08-31T06:16:05;6.77;;;6.07;;
5452;SDS011;2749;53.576;9.822;2023-08-31T06:18:31;8.10;;;5.87;;
5452;SDS011;2749;53.576;9.822;2023-08-31T06:20:57;7.20;;;4.80;;
5452;SDS011;2749;53.576;9.822;2023-08-31T06:23:23;9.20;;;5.80;;
5452;SDS011;2749;53.576;9.822;2023-08-31T06:25:49;11.43;;;5.87;;
5452;SDS011;2749;53.576;9.822;2023-08-31T06:28:15;6.90;;;6.20;;
5452;SDS011;2749;53.576;9.822;2023-08-31T06:30:41;7.80;;;5.53;;
5452;SDS011;2749;53.576;9.822;2023-08-31T06:33:14;5.80;;;5.20;;
5452;SDS011;2749;53.576;9.822;2023-08-31T06:35:40;5.87;;;5.27;;
5452;SDS011;2749;53.576;9.822;2023-08-31T06:38:06;5.70;;;5.07;;
5452;SDS011;2749;53.576;9.822;2023-08-31T06:40:32;6.37;;;5.43;;
5452;SDS011;2749;53.576;9.822;2023-08-31T06:42:58;8.90;;;5.00;;
5452;SDS011;2749;53.576;9.822;2023-08-31T06:45:24;6.03;;;4.43;;
5452;SDS011;2749;53.576;9.822;2023-08-31T06:47:50;7.70;;;4.43;;
5452;SDS011;2749;53.576;9.822;2023-08-31T06:50:16;7.23;;;5.00;;
5452;SDS011;2749;53.576;9.822;2023-08-31T06:52:42;6.90;;;4.13;;
5452;SDS011;2749;53.576;9.822;2023-08-31T06:55:11;4.73;;;4.07;;
5452;SDS011;2749;53.576;9.822;2023-08-31T06:57:37;5.23;;;4.47;;
5452;SDS011;2749;53.576;9.822;2023-08-31T07:00:03;5.17;;;3.37;;
5452;SDS011;2749;53.576;9.822;2023-08-31T07:02:31;4.47;;;4.07;;
5452;SDS011;2749;53.576;9.822;2023-08-31T07:04:56;3.40;;;3.10;;
5452;SDS011;2749;53.576;9.822;2023-08-31T07:07:22;5.90;;;4.50;;
5452;SDS011;2749;53.576;9.822;2023-08-31T07:09:49;5.90;;;3.73;;
5452;SDS011;2749;53.576;9.822;2023-08-31T07:12:14;5.40;;;3.00;;
5452;SDS011;2749;53.576;9.822;2023-08-31T07:14:40;3.33;;;2.90;;
5452;SDS011;2749;53.576;9.822;2023-08-31T07:17:06;3.30;;;2.63;;
5452;SDS011;2749;53.576;9.822;2023-08-31T07:19:35;3.80;;;2.90;;
5452;SDS011;2749;53.576;9.822;2023-08-31T07:22:01;3.80;;;2.50;;
5452;SDS011;2749;53.576;9.822;2023-08-31T07:24:29;3.77;;;2.77;;
5452;SDS011;2749;53.576;9.822;2023-08-31T07:26:55;5.43;;;3.07;;
5452;SDS011;2749;53.576;9.822;2023-08-31T07:29:21;5.97;;;3.20;;
5452;SDS011;2749;53.576;9.822;2023-08-31T07:31:47;4.53;;;4.03;;
5452;SDS011;2749;53.576;9.822;2023-08-31T07:34:13;9.77;;;3.33;;
5452;SDS011;2749;53.576;9.822;2023-08-31T07:36:38;4.17;;;3.00;;
5452;SDS011;2749;53.576;9.822;2023-08-31T07:39:04;8.43;;;2.80;;
5452;SDS011;2749;53.576;9.822;2023-08-31T07:41:30;8.63;;;2.57;;
5452;SDS011;2749;53.576;9.822;2023-08-31T07:43:56;4.40;;;2.60;;
5452;SDS011;2749;53.576;9.822;2023-08-31T07:46:23;4.90;;;3.00;;
5452;SDS011;2749;53.576;9.822;2023-08-31T07:48:49;6.10;;;4.50;;
5452;SDS011;2749;53.576;9.822;2023-08-31T07:51:15;4.40;;;2.70;;
5452;SDS011;2749;53.576;9.822;2023-08-31T07:53:41;4.57;;;2.70;;
5452;SDS011;2749;53.576;9.822;2023-08-31T07:56:07;6.03;;;3.20;;
5452;SDS011;2749;53.576;9.822;2023-08-31T07:58:33;3.53;;;3.00;;
5452;SDS011;2749;53.576;9.822;2023-08-31T08:00:59;4.20;;;2.47;;
5452;SDS011;2749;53.576;9.822;2023-08-31T08:03:25;4.53;;;2.77;;
5452;SDS011;2749;53.576;9.822;2023-08-31T08:05:51;6.20;;;3.10;;
5452;SDS011;2749;53.576;9.822;2023-08-31T08:08:17;3.70;;;3.40;;
5452;SDS011;2749;53.576;9.822;2023-08-31T08:10:43;5.13;;;2.73;;
5452;SDS011;2749;53.576;9.822;2023-08-31T08:13:09;5.00;;;4.50;;
5452;SDS011;2749;53.576;9.822;2023-08-31T08:15:35;6.60;;;4.10;;
5452;SDS011;2749;53.576;9.822;2023-08-31T08:18:01;6.73;;;4.00;;
5452;SDS011;2749;53.576;9.822;2023-08-31T08:20:27;5.73;;;4.10;;
5452;SDS011;2749;53.576;9.822;2023-08-31T08:22:54;5.23;;;4.10;;
5452;SDS011;2749;53.576;9.822;2023-08-31T08:25:20;5.17;;;4.10;;
5452;SDS011;2749;53.576;9.822;2023-08-31T08:27:46;4.03;;;3.57;;
5452;SDS011;2749;53.576;9.822;2023-08-31T08:30:12;4.30;;;3.70;;
5452;SDS011;2749;53.576;9.822;2023-08-31T08:32:39;9.93;;;4.73;;
5452;SDS011;2749;53.576;9.822;2023-08-31T08:35:05;4.10;;;3.20;;
5452;SDS011;2749;53.576;9.822;2023-08-31T08:37:31;5.00;;;3.73;;
5452;SDS011;2749;53.576;9.822;2023-08-31T08:39:59;4.20;;;3.87;;
5452;SDS011;2749;53.576;9.822;2023-08-31T08:42:26;5.70;;;3.60;;
5452;SDS011;2749;53.576;9.822;2023-08-31T08:44:55;4.23;;;3.40;;
5452;SDS011;2749;53.576;9.822;2023-08-31T08:47:22;6.37;;;4.20;;
5452;SDS011;2749;53.576;9.822;2023-08-31T08:49:48;3.90;;;3.60;;
5452;SDS011;2749;53.576;9.822;2023-08-31T08:52:14;5.33;;;3.70;;
5452;SDS011;2749;53.576;9.822;2023-08-31T08:54:41;4.10;;;3.70;;
5452;SDS011;2749;53.576;9.822;2023-08-31T08:57:07;3.93;;;3.53;;
5452;SDS011;2749;53.576;9.822;2023-08-31T08:59:33;5.13;;;4.03;;
5452;SDS011;2749;53.576;9.822;2023-08-31T09:01:59;4.40;;;3.30;;
5452;SDS011;2749;53.576;9.822;2023-08-31T09:04:25;3.37;;;2.77;;
5452;SDS011;2749;53.576;9.822;2023-08-31T09:06:51;5.40;;;3.17;;
5452;SDS011;2749;53.576;9.822;2023-08-31T09:09:17;3.93;;;3.23;;
5452;SDS011;2749;53.576;9.822;2023-08-31T09:11:44;3.10;;;2.40;;
5452;SDS011;2749;53.576;9.822;2023-08-31T09:14:17;3.33;;;2.87;;
5452;SDS011;2749;53.576;9.822;2023-08-31T09:16:47;5.47;;;2.87;;
5452;SDS011;2749;53.576;9.822;2023-08-31T09:19:23;3.77;;;2.93;;
5452;SDS011;2749;53.576;9.822;2023-08-31T09:21:50;4.60;;;3.87;;
5452;SDS011;2749;53.576;9.822;2023-08-31T09:24:17;3.47;;;3.20;;
5452;SDS011;2749;53.576;9.822;2023-08-31T09:26:44;4.60;;;2.50;;
5452;SDS011;2749;53.576;9.822;2023-08-31T09:29:11;5.57;;;3.70;;
5452;SDS011;2749;53.576;9.822;2023-08-31T09:31:37;3.47;;;2.57;;
5452;SDS011;2749;53.576;9.822;2023-08-31T09:34:03;6.50;;;2.40;;
5452;SDS011;2749;53.576;9.822;2023-08-31T09:36:29;2.73;;;2.47;;
5452;SDS011;2749;53.576;9.822;2023-08-31T09:38:58;3.63;;;3.13;;
5452;SDS011;2749;53.576;9.822;2023-08-31T09:41:25;3.50;;;2.70;;
5452;SDS011;2749;53.576;9.822;2023-08-31T09:43:50;4.30;;;3.40;;
5452;SDS011;2749;53.576;9.822;2023-08-31T09:46:16;5.77;;;3.60;;
5452;SDS011;2749;53.576;9.822;2023-08-31T09:48:43;3.10;;;2.80;;
5452;SDS011;2749;53.576;9.822;2023-08-31T09:51:11;4.13;;;3.73;;
5452;SDS011;2749;53.576;9.822;2023-08-31T09:53:39;3.27;;;2.47;;
5452;SDS011;2749;53.576;9.822;2023-08-31T09:56:06;4.83;;;3.30;;
5452;SDS011;2749;53.576;9.822;2023-08-31T09:58:33;4.20;;;3.47;;
5452;SDS011;2749;53.576;9.822;2023-08-31T10:00:59;5.23;;;3.17;;
5452;SDS011;2749;53.576;9.822;2023-08-31T10:03:26;7.40;;;3.53;;
5452;SDS011;2749;53.576;9.822;2023-08-31T10:05:52;5.33;;;4.00;;
5452;SDS011;2749;53.576;9.822;2023-08-31T10:08:19;4.40;;;4.00;;
5452;SDS011;2749;53.576;9.822;2023-08-31T10:10:45;4.70;;;3.73;;
5452;SDS011;2749;53.576;9.822;2023-08-31T10:13:12;5.07;;;4.67;;
5452;SDS011;2749;53.576;9.822;2023-08-31T10:15:39;5.40;;;4.90;;
5452;SDS011;2749;53.576;9.822;2023-08-31T10:18:07;8.13;;;5.23;;
5452;SDS011;2749;53.576;9.822;2023-08-31T10:20:33;5.17;;;4.77;;
5452;SDS011;2749;53.576;9.822;2023-08-31T10:22:59;6.63;;;5.60;;
5452;SDS011;2749;53.576;9.822;2023-08-31T10:25:39;5.10;;;4.50;;
5452;SDS011;2749;53.576;9.822;2023-08-31T10:28:20;5.33;;;4.63;;
5452;SDS011;2749;53.576;9.822;2023-08-31T10:33:54;7.20;;;4.87;;
5452;SDS011;2749;53.576;9.822;2023-08-31T10:36:22;6.43;;;4.33;;
5452;SDS011;2749;53.576;9.822;2023-08-31T10:39:00;4.07;;;3.50;;
5452;SDS011;2749;53.576;9.822;2023-08-31T10:41:33;3.30;;;3.00;;
5452;SDS011;2749;53.576;9.822;2023-08-31T10:44:00;4.43;;;2.80;;
5452;SDS011;2749;53.576;9.822;2023-08-31T10:46:35;2.87;;;2.67;;
5452;SDS011;2749;53.576;9.822;2023-08-31T10:51:37;3.00;;;2.73;;
5452;SDS011;2749;53.576;9.822;2023-08-31T10:54:07;2.67;;;2.47;;
5452;SDS011;2749;53.576;9.822;2023-08-31T10:56:56;3.37;;;3.07;;
5452;SDS011;2749;53.576;9.822;2023-08-31T11:02:08;2.33;;;2.10;;
5452;SDS011;2749;53.576;9.822;2023-08-31T11:04:53;2.80;;;2.27;;
5452;SDS011;2749;53.576;9.822;2023-08-31T11:07:20;2.77;;;1.97;;
5452;SDS011;2749;53.576;9.822;2023-08-31T11:09:49;2.53;;;1.90;;
5452;SDS011;2749;53.576;9.822;2023-08-31T11:12:15;1.80;;;1.70;;
5452;SDS011;2749;53.576;9.822;2023-08-31T11:14:41;3.10;;;1.97;;
5452;SDS011;2749;53.576;9.822;2023-08-31T11:17:07;6.30;;;1.57;;
5452;SDS011;2749;53.576;9.822;2023-08-31T11:19:33;2.03;;;1.20;;
5452;SDS011;2749;53.576;9.822;2023-08-31T11:22:00;3.30;;;1.50;;
5452;SDS011;2749;53.576;9.822;2023-08-31T11:24:31;1.30;;;1.20;;
5452;SDS011;2749;53.576;9.822;2023-08-31T11:26:58;1.43;;;1.20;;
5452;SDS011;2749;53.576;9.822;2023-08-31T11:29:24;1.37;;;1.20;;
5452;SDS011;2749;53.576;9.822;2023-08-31T11:31:50;2.90;;;1.20;;
5452;SDS011;2749;53.576;9.822;2023-08-31T11:34:16;2.10;;;1.30;;
5452;SDS011;2749;53.576;9.822;2023-08-31T11:36:43;4.60;;;1.60;;
5452;SDS011;2749;53.576;9.822;2023-08-31T11:39:10;1.37;;;1.17;;
5452;SDS011;2749;53.576;9.822;2023-08-31T11:41:36;3.57;;;1.30;;
5452;SDS011;2749;53.576;9.822;2023-08-31T11:44:10;1.87;;;1.00;;
5452;SDS011;2749;53.576;9.822;2023-08-31T11:46:37;1.90;;;1.10;;
5452;SDS011;2749;53.576;9.822;2023-08-31T11:49:04;1.17;;;1.07;;
5452;SDS011;2749;53.576;9.822;2023-08-31T11:51:31;2.57;;;2.33;;
5452;SDS011;2749;53.576;9.822;2023-08-31T11:53:57;1.37;;;1.20;;
5452;SDS011;2749;53.576;9.822;2023-08-31T11:56:24;1.57;;;1.43;;
5452;SDS011;2749;53.576;9.822;2023-08-31T11:58:50;3.03;;;1.30;;
5452;SDS011;2749;53.576;9.822;2023-08-31T12:01:20;3.77;;;1.40;;
5452;SDS011;2749;53.576;9.822;2023-08-31T12:03:46;1.60;;;1.50;;
5452;SDS011;2749;53.576;9.822;2023-08-31T12:06:16;3.27;;;1.47;;
5452;SDS011;2749;53.576;9.822;2023-08-31T12:08:43;2.53;;;1.13;;
5452;SDS011;2749;53.576;9.822;2023-08-31T12:11:09;2.40;;;1.37;;
5452;SDS011;2749;53.576;9.822;2023-08-31T12:13:35;3.00;;;1.83;;
5452;SDS011;2749;53.576;9.822;2023-08-31T12:16:01;1.50;;;1.40;;
5452;SDS011;2749;53.576;9.822;2023-08-31T12:18:29;5.30;;;1.53;;
5452;SDS011;2749;53.576;9.822;2023-08-31T12:20:56;1.43;;;1.27;;
5452;SDS011;2749;53.576;9.822;2023-08-31T12:23:23;2.70;;;1.30;;
5452;SDS011;2749;53.576;9.822;2023-08-31T12:25:50;2.40;;;1.33;;
5452;SDS011;2749;53.576;9.822;2023-08-31T12:28:17;2.53;;;1.17;;
5452;SDS011;2749;53.576;9.822;2023-08-31T12:30:46;1.83;;;1.10;;
5452;SDS011;2749;53.576;9.822;2023-08-31T12:33:13;2.57;;;1.03;;
5452;SDS011;2749;53.576;9.822;2023-08-31T12:35:39;2.27;;;0.93;;
5452;SDS011;2749;53.576;9.822;2023-08-31T12:38:05;1.50;;;0.80;;
5452;SDS011;2749;53.576;9.822;2023-08-31T12:40:31;1.27;;;0.70;;
5452;SDS011;2749;53.576;9.822;2023-08-31T12:42:57;2.80;;;1.10;;
5452;SDS011;2749;53.576;9.822;2023-08-31T12:45:23;1.53;;;1.23;;
5452;SDS011;2749;53.576;9.822;2023-08-31T12:47:48;1.07;;;0.83;;
5452;SDS011;2749;53.576;9.822;2023-08-31T12:50:15;1.00;;;0.80;;
5452;SDS011;2749;53.576;9.822;2023-08-31T12:52:41;6.40;;;1.00;;
5452;SDS011;2749;53.576;9.822;2023-08-31T12:55:11;1.13;;;0.70;;
5452;SDS011;2749;53.576;9.822;2023-08-31T12:57:37;2.30;;;1.10;;
5452;SDS011;2749;53.576;9.822;2023-08-31T13:00:03;1.07;;;0.93;;
5452;SDS011;2749;53.576;9.822;2023-08-31T13:02:36;1.43;;;0.90;;
5452;SDS011;2749;53.576;9.822;2023-08-31T13:05:02;3.63;;;2.53;;
5452;SDS011;2749;53.576;9.822;2023-08-31T13:07:28;2.40;;;1.03;;
5452;SDS011;2749;53.576;9.822;2023-08-31T13:09:54;1.57;;;0.97;;
5452;SDS011;2749;53.576;9.822;2023-08-31T13:12:20;2.00;;;1.00;;
5452;SDS011;2749;53.576;9.822;2023-08-31T13:14:46;1.03;;;0.93;;
5452;SDS011;2749;53.576;9.822;2023-08-31T13:17:12;1.40;;;1.00;;
5452;SDS011;2749;53.576;9.822;2023-08-31T13:19:38;1.00;;;0.83;;
5452;SDS011;2749;53.576;9.822;2023-08-31T13:22:04;1.20;;;0.97;;
5452;SDS011;2749;53.576;9.822;2023-08-31T13:24:30;1.60;;;0.93;;
5452;SDS011;2749;53.576;9.822;2023-08-31T13:26:56;1.30;;;0.80;;
5452;SDS011;2749;53.576;9.822;2023-08-31T13:29:22;2.73;;;1.27;;
5452;SDS011;2749;53.576;9.822;2023-08-31T13:31:48;4.00;;;1.30;;
5452;SDS011;2749;53.576;9.822;2023-08-31T13:34:14;1.70;;;1.00;;
5452;SDS011;2749;53.576;9.822;2023-08-31T13:36:40;2.20;;;1.10;;
5452;SDS011;2749;53.576;9.822;2023-08-31T13:39:06;4.10;;;1.17;;
5452;SDS011;2749;53.576;9.822;2023-08-31T13:41:32;1.50;;;1.00;;
5452;SDS011;2749;53.576;9.822;2023-08-31T13:43:58;1.00;;;0.90;;
5452;SDS011;2749;53.576;9.822;2023-08-31T13:46:24;2.57;;;0.90;;
5452;SDS011;2749;53.576;9.822;2023-08-31T13:48:50;1.00;;;0.90;;
5452;SDS011;2749;53.576;9.822;2023-08-31T13:51:16;1.00;;;0.90;;
5452;SDS011;2749;53.576;9.822;2023-08-31T13:53:42;2.30;;;0.90;;
5452;SDS011;2749;53.576;9.822;2023-08-31T13:56:09;2.23;;;0.90;;
5452;SDS011;2749;53.576;9.822;2023-08-31T13:58:35;1.53;;;1.20;;
5452;SDS011;2749;53.576;9.822;2023-08-31T14:01:01;1.10;;;0.90;;
5452;SDS011;2749;53.576;9.822;2023-08-31T14:03:28;2.20;;;0.90;;
5452;SDS011;2749;53.576;9.822;2023-08-31T14:05:54;3.60;;;1.10;;
5452;SDS011;2749;53.576;9.822;2023-08-31T14:08:20;2.33;;;1.00;;
5452;SDS011;2749;53.576;9.822;2023-08-31T14:10:46;1.27;;;0.97;;
5452;SDS011;2749;53.576;9.822;2023-08-31T14:13:12;5.23;;;1.40;;
5452;SDS011;2749;53.576;9.822;2023-08-31T14:15:38;2.97;;;1.20;;
5452;SDS011;2749;53.576;9.822;2023-08-31T14:18:10;2.03;;;1.10;;
5452;SDS011;2749;53.576;9.822;2023-08-31T14:20:36;2.37;;;1.23;;
5452;SDS011;2749;53.576;9.822;2023-08-31T14:23:03;1.70;;;1.30;;
5452;SDS011;2749;53.576;9.822;2023-08-31T14:25:29;1.77;;;1.27;;
5452;SDS011;2749;53.576;9.822;2023-08-31T14:27:55;1.10;;;0.80;;
5452;SDS011;2749;53.576;9.822;2023-08-31T14:30:21;1.30;;;1.00;;
5452;SDS011;2749;53.576;9.822;2023-08-31T14:32:46;0.97;;;0.90;;
5452;SDS011;2749;53.576;9.822;2023-08-31T14:35:12;2.80;;;0.93;;
5452;SDS011;2749;53.576;9.822;2023-08-31T14:37:38;3.40;;;1.30;;
5452;SDS011;2749;53.576;9.822;2023-08-31T14:40:04;2.13;;;0.90;;
5452;SDS011;2749;53.576;9.822;2023-08-31T14:42:32;2.23;;;1.07;;
5452;SDS011;2749;53.576;9.822;2023-08-31T14:44:58;1.10;;;1.00;;
5452;SDS011;2749;53.576;9.822;2023-08-31T14:47:24;2.00;;;1.10;;
5452;SDS011;2749;53.576;9.822;2023-08-31T14:49:50;3.07;;;1.23;;
5452;SDS011;2749;53.576;9.822;2023-08-31T14:52:16;1.60;;;1.03;;
5452;SDS011;2749;53.576;9.822;2023-08-31T14:54:42;1.27;;;0.70;;
5452;SDS011;2749;53.576;9.822;2023-08-31T14:57:08;2.87;;;0.70;;
5452;SDS011;2749;53.576;9.822;2023-08-31T14:59:34;2.27;;;1.10;;
5452;SDS011;2749;53.576;9.822;2023-08-31T15:02:00;0.87;;;0.70;;
5452;SDS011;2749;53.576;9.822;2023-08-31T15:04:29;2.07;;;0.70;;
5452;SDS011;2749;53.576;9.822;2023-08-31T15:06:55;1.20;;;1.03;;
5452;SDS011;2749;53.576;9.822;2023-08-31T15:09:22;3.13;;;1.43;;
5452;SDS011;2749;53.576;9.822;2023-08-31T15:11:48;1.50;;;1.30;;
5452;SDS011;2749;53.576;9.822;2023-08-31T15:14:14;1.30;;;1.00;;
5452;SDS011;2749;53.576;9.822;2023-08-31T15:16:40;2.70;;;1.00;;
5452;SDS011;2749;53.576;9.822;2023-08-31T15:19:06;4.23;;;0.80;;
5452;SDS011;2749;53.576;9.822;2023-08-31T15:21:32;2.10;;;0.77;;